sensor_id;sensor_type;location;lat;lon;timestamp;pressure;altitude;pressure_sealevel;temperature;humidity
829;BME280;396;52.558;13.188;2022-07-23T00:00:00;101228.56;;;17.32;95.71
829;BME280;396;52.558;13.188;2022-07-23T00:02:27;101224.19;;;17.31;95.80
829;BME280;396;52.558;13.188;2022-07-23T00:04:53;101222.41;;;17.35;95.40
829;BME280;396;52.558;13.188;2022-07-23T00:07:21;101211.13;;;17.36;95.51
829;BME280;396;52.558;13.188;2022-07-23T00:09:48;101209.53;;;17.35;95.39
829;BME280;396;52.558;13.188;2022-07-23T00:12:14;101204.06;;;17.35;95.67
829;BME280;396;52.558;13.188;2022-07-23T00:14:41;101202.78;;;17.33;95.53
829;BME280;396;52.558;13.188;2022-07-23T00:17:08;101206.66;;;17.32;95.54
829;BME280;396;52.558;13.188;2022-07-23T00:19:34;101201.03;;;17.28;95.95
829;BME280;396;52.558;13.188;2022-07-23T00:22:01;101194.56;;;17.33;95.50
829;BME280;396;52.558;13.188;2022-07-23T00:24:29;101194.22;;;17.34;95.45
829;BME280;396;52.558;13.188;2022-07-23T00:26:55;101198.28;;;17.28;95.66
829;BME280;396;52.558;13.188;2022-07-23T00:29:22;101194.06;;;17.31;96.01
829;BME280;396;52.558;13.188;2022-07-23T00:31:49;101199.69;;;17.34;95.76
829;BME280;396;52.558;13.188;2022-07-23T00:34:15;101206.66;;;17.32;95.60
829;BME280;396;52.558;13.188;2022-07-23T00:36:42;101209.69;;;17.30;95.68
829;BME280;396;52.558;13.188;2022-07-23T00:39:09;101209.69;;;17.30;95.60
829;BME280;396;52.558;13.188;2022-07-23T00:41:36;101198.63;;;17.27;95.79
829;BME280;396;52.558;13.188;2022-07-23T00:44:14;101202.81;;;17.24;95.96
829;BME280;396;52.558;13.188;2022-07-23T00:46:45;101199.09;;;17.29;95.21
829;BME280;396;52.558;13.188;2022-07-23T00:49:12;101202.97;;;17.28;95.19
829;BME280;396;52.558;13.188;2022-07-23T00:51:38;101214.75;;;17.20;95.49
829;BME280;396;52.558;13.188;2022-07-23T00:54:05;101220.88;;;17.17;95.54
829;BME280;396;52.558;13.188;2022-07-23T00:56:32;101222.50;;;17.18;95.95
829;BME280;396;52.558;13.188;2022-07-23T00:59:01;101230.09;;;17.12;95.36
829;BME280;396;52.558;13.188;2022-07-23T01:01:28;101224.50;;;17.00;96.15
829;BME280;396;52.558;13.188;2022-07-23T01:03:54;101216.47;;;16.95;96.48
829;BME280;396;52.558;13.188;2022-07-23T01:06:21;101213.28;;;16.93;96.59
829;BME280;396;52.558;13.188;2022-07-23T01:08:48;101198.00;;;16.92;96.36
829;BME280;396;52.558;13.188;2022-07-23T01:11:14;101198.00;;;16.92;97.00
829;BME280;396;52.558;13.188;2022-07-23T01:13:42;101205.53;;;16.95;96.64
829;BME280;396;52.558;13.188;2022-07-23T01:16:10;101199.59;;;16.93;96.19
829;BME280;396;52.558;13.188;2022-07-23T01:18:36;101197.06;;;16.87;96.14
829;BME280;396;52.558;13.188;2022-07-23T01:21:03;101192.06;;;16.81;96.74
829;BME280;396;52.558;13.188;2022-07-23T01:23:31;101198.34;;;16.81;96.79
829;BME280;396;52.558;13.188;2022-07-23T01:25:57;101201.09;;;16.81;96.36
829;BME280;396;52.558;13.188;2022-07-23T01:28:24;101193.84;;;16.77;93.63
829;BME280;396;52.558;13.188;2022-07-23T01:30:51;101189.53;;;16.67;93.26
829;BME280;396;52.558;13.188;2022-07-23T01:33:17;101182.78;;;16.64;93.21
829;BME280;396;52.558;13.188;2022-07-23T01:35:44;101186.16;;;16.61;92.43
829;BME280;396;52.558;13.188;2022-07-23T01:38:10;101185.69;;;16.59;94.45
829;BME280;396;52.558;13.188;2022-07-23T01:40:38;101188.56;;;16.63;95.75
829;BME280;396;52.558;13.188;2022-07-23T01:43:05;101178.13;;;16.65;96.47
829;BME280;396;52.558;13.188;2022-07-23T01:45:32;101186.31;;;16.65;96.27
829;BME280;396;52.558;13.188;2022-07-23T01:47:58;101188.38;;;16.68;96.81
829;BME280;396;52.558;13.188;2022-07-23T01:50:25;101191.63;;;16.70;95.90
829;BME280;396;52.558;13.188;2022-07-23T01:52:51;101185.81;;;16.72;96.84
829;BME280;396;52.558;13.188;2022-07-23T01:55:18;101189.53;;;16.76;96.56
829;BME280;396;52.558;13.188;2022-07-23T01:57:46;101192.25;;;16.76;96.66
829;BME280;396;52.558;13.188;2022-07-23T02:00:13;101190.31;;;16.76;96.76
829;BME280;396;52.558;13.188;2022-07-23T02:02:40;101180.97;;;16.77;96.65
829;BME280;396;52.558;13.188;2022-07-23T02:05:08;101178.88;;;16.83;96.95
829;BME280;396;52.558;13.188;2022-07-23T02:07:34;101182.88;;;16.85;96.62
829;BME280;396;52.558;13.188;2022-07-23T02:10:01;101176.44;;;16.81;96.25
829;BME280;396;52.558;13.188;2022-07-23T02:12:28;101169.72;;;16.79;95.97
829;BME280;396;52.558;13.188;2022-07-23T02:14:56;101170.88;;;16.69;95.97
829;BME280;396;52.558;13.188;2022-07-23T02:17:22;101170.38;;;16.67;96.67
829;BME280;396;52.558;13.188;2022-07-23T02:19:49;101173.97;;;16.50;96.86
829;BME280;396;52.558;13.188;2022-07-23T02:22:15;101180.91;;;16.48;97.13
829;BME280;396;52.558;13.188;2022-07-23T02:24:42;101186.53;;;16.51;97.71
829;BME280;396;52.558;13.188;2022-07-23T02:27:09;101184.72;;;16.55;96.72
829;BME280;396;52.558;13.188;2022-07-23T02:29:35;101183.13;;;16.54;97.64
829;BME280;396;52.558;13.188;2022-07-23T02:32:04;101169.94;;;16.56;96.83
829;BME280;396;52.558;13.188;2022-07-23T02:34:30;101178.31;;;16.51;96.90
829;BME280;396;52.558;13.188;2022-07-23T02:36:57;101161.09;;;16.51;96.78
829;BME280;396;52.558;13.188;2022-07-23T02:39:23;101159.50;;;16.50;95.85
829;BME280;396;52.558;13.188;2022-07-23T02:41:50;101172.03;;;16.51;96.88
829;BME280;396;52.558;13.188;2022-07-23T02:44:17;101172.34;;;16.58;95.67
829;BME280;396;52.558;13.188;2022-07-23T02:46:43;101166.41;;;16.56;92.05
829;BME280;396;52.558;13.188;2022-07-23T02:49:11;101174.59;;;16.56;93.00
829;BME280;396;52.558;13.188;2022-07-23T02:51:38;101183.13;;;16.54;93.62
829;BME280;396;52.558;13.188;2022-07-23T02:54:04;101195.50;;;16.60;94.81
829;BME280;396;52.558;13.188;2022-07-23T02:56:31;101201.78;;;16.61;94.95
829;BME280;396;52.558;13.188;2022-07-23T02:58:58;101203.19;;;16.67;94.44
829;BME280;396;52.558;13.188;2022-07-23T03:01:25;101200.97;;;16.69;94.89
829;BME280;396;52.558;13.188;2022-07-23T03:03:51;101188.53;;;16.72;94.53
829;BME280;396;52.558;13.188;2022-07-23T03:06:19;101183.59;;;16.74;94.39
829;BME280;396;52.558;13.188;2022-07-23T03:08:46;101175.50;;;16.77;93.91
829;BME280;396;52.558;13.188;2022-07-23T03:11:12;101187.28;;;16.78;94.04
829;BME280;396;52.558;13.188;2022-07-23T03:13:40;101186.44;;;16.77;93.97
829;BME280;396;52.558;13.188;2022-07-23T03:16:07;101193.66;;;16.82;94.13
829;BME280;396;52.558;13.188;2022-07-23T03:18:34;101188.19;;;16.82;93.96
829;BME280;396;52.558;13.188;2022-07-23T03:21:00;101197.88;;;16.79;93.58
829;BME280;396;52.558;13.188;2022-07-23T03:23:28;101208.19;;;16.82;93.41
829;BME280;396;52.558;13.188;2022-07-23T03:25:55;101212.81;;;16.82;92.77
829;BME280;396;52.558;13.188;2022-07-23T03:28:22;101215.56;;;16.82;93.29
829;BME280;396;52.558;13.188;2022-07-23T03:30:48;101224.41;;;16.87;92.64
829;BME280;396;52.558;13.188;2022-07-23T03:33:16;101206.56;;;16.81;92.20
829;BME280;396;52.558;13.188;2022-07-23T03:35:43;101216.84;;;16.84;92.45
829;BME280;396;52.558;13.188;2022-07-23T03:38:10;101213.63;;;16.91;93.06
829;BME280;396;52.558;13.188;2022-07-23T03:40:38;101226.78;;;16.98;92.47
829;BME280;396;52.558;13.188;2022-07-23T03:43:05;101230.31;;;16.98;92.49
829;BME280;396;52.558;13.188;2022-07-23T03:45:32;101226.94;;;17.01;91.75
829;BME280;396;52.558;13.188;2022-07-23T03:47:59;101241.38;;;17.10;91.81
829;BME280;396;52.558;13.188;2022-07-23T03:50:25;101241.03;;;17.12;91.78
829;BME280;396;52.558;13.188;2022-07-23T03:52:52;101246.22;;;17.13;91.05
829;BME280;396;52.558;13.188;2022-07-23T03:55:19;101246.03;;;17.19;90.21
829;BME280;396;52.558;13.188;2022-07-23T03:57:47;101241.81;;;17.21;90.11
829;BME280;396;52.558;13.188;2022-07-23T04:00:14;101233.41;;;17.26;89.69
829;BME280;396;52.558;13.188;2022-07-23T04:02:41;101214.72;;;17.28;90.33
829;BME280;396;52.558;13.188;2022-07-23T04:05:08;101204.91;;;17.27;90.96
829;BME280;396;52.558;13.188;2022-07-23T04:07:34;101203.56;;;17.33;91.45
829;BME280;396;52.558;13.188;2022-07-23T04:10:01;101189.03;;;17.42;91.64
829;BME280;396;52.558;13.188;2022-07-23T04:12:27;101202.38;;;17.43;93.29
829;BME280;396;52.558;13.188;2022-07-23T04:14:55;101186.69;;;17.31;95.99
829;BME280;396;52.558;13.188;2022-07-23T04:17:22;101174.97;;;17.22;96.74
829;BME280;396;52.558;13.188;2022-07-23T04:19:49;101167.63;;;17.14;98.18
829;BME280;396;52.558;13.188;2022-07-23T04:22:15;101175.34;;;17.12;100.00
829;BME280;396;52.558;13.188;2022-07-23T04:24:42;101190.97;;;17.11;100.00
829;BME280;396;52.558;13.188;2022-07-23T04:27:08;101196.63;;;17.06;100.00
829;BME280;396;52.558;13.188;2022-07-23T04:29:35;101197.00;;;16.96;100.00
829;BME280;396;52.558;13.188;2022-07-23T04:32:04;101205.56;;;16.86;100.00
829;BME280;396;52.558;13.188;2022-07-23T04:34:30;101219.78;;;16.79;100.00
829;BME280;396;52.558;13.188;2022-07-23T04:36:57;101216.88;;;16.76;100.00
829;BME280;396;52.558;13.188;2022-07-23T04:39:24;101210.94;;;16.74;100.00
829;BME280;396;52.558;13.188;2022-07-23T04:41:50;101216.06;;;16.84;100.00
829;BME280;396;52.558;13.188;2022-07-23T04:44:17;101219.94;;;16.83;100.00
829;BME280;396;52.558;13.188;2022-07-23T04:46:43;101211.72;;;16.83;100.00
829;BME280;396;52.558;13.188;2022-07-23T04:49:11;101221.56;;;16.75;99.51
829;BME280;396;52.558;13.188;2022-07-23T04:51:38;101221.56;;;16.75;100.00
829;BME280;396;52.558;13.188;2022-07-23T04:54:05;101224.09;;;16.80;100.00
829;BME280;396;52.558;13.188;2022-07-23T04:56:31;101223.31;;;16.80;100.00
829;BME280;396;52.558;13.188;2022-07-23T04:58:58;101234.59;;;16.78;100.00
829;BME280;396;52.558;13.188;2022-07-23T05:01:24;101215.75;;;16.77;100.00
829;BME280;396;52.558;13.188;2022-07-23T05:03:51;101213.34;;;16.75;100.00
829;BME280;396;52.558;13.188;2022-07-23T05:06:19;101189.69;;;16.71;100.00
829;BME280;396;52.558;13.188;2022-07-23T05:08:46;101204.81;;;16.68;100.00
829;BME280;396;52.558;13.188;2022-07-23T05:11:12;101208.03;;;16.70;100.00
829;BME280;396;52.558;13.188;2022-07-23T05:13:39;101218.81;;;16.75;100.00
829;BME280;396;52.558;13.188;2022-07-23T05:16:06;101220.22;;;16.81;100.00
829;BME280;396;52.558;13.188;2022-07-23T05:18:32;101216.84;;;16.84;100.00
829;BME280;396;52.558;13.188;2022-07-23T05:20:59;101209.44;;;16.85;100.00
829;BME280;396;52.558;13.188;2022-07-23T05:23:27;101210.25;;;16.85;100.00
829;BME280;396;52.558;13.188;2022-07-23T05:25:53;101217.00;;;16.88;100.00
829;BME280;396;52.558;13.188;2022-07-23T05:28:20;101208.47;;;16.89;100.00
829;BME280;396;52.558;13.188;2022-07-23T05:30:47;101214.72;;;16.90;100.00
829;BME280;396;52.558;13.188;2022-07-23T05:33:13;101215.06;;;16.88;100.00
829;BME280;396;52.558;13.188;2022-07-23T05:35:40;101210.72;;;16.87;100.00
829;BME280;396;52.558;13.188;2022-07-23T05:38:06;101212.00;;;16.90;100.00
829;BME280;396;52.558;13.188;2022-07-23T05:40:34;101210.53;;;16.93;100.00
829;BME280;396;52.558;13.188;2022-07-23T05:43:01;101222.25;;;17.02;100.00
829;BME280;396;52.558;13.188;2022-07-23T05:45:28;101222.91;;;16.99;100.00
829;BME280;396;52.558;13.188;2022-07-23T05:47:54;101230.66;;;16.97;100.00
829;BME280;396;52.558;13.188;2022-07-23T05:50:21;101233.38;;;16.97;100.00
829;BME280;396;52.558;13.188;2022-07-23T05:52:48;101236.13;;;16.97;100.00
829;BME280;396;52.558;13.188;2022-07-23T05:55:14;101236.78;;;16.94;100.00
829;BME280;396;52.558;13.188;2022-07-23T05:57:42;101238.53;;;16.98;100.00
829;BME280;396;52.558;13.188;2022-07-23T06:00:10;101241.59;;;16.97;100.00
829;BME280;396;52.558;13.188;2022-07-23T06:02:38;101231.31;;;16.94;100.00
829;BME280;396;52.558;13.188;2022-07-23T06:05:06;101230.66;;;16.97;100.00
829;BME280;396;52.558;13.188;2022-07-23T06:07:34;101233.38;;;16.97;100.00
829;BME280;396;52.558;13.188;2022-07-23T06:10:01;101222.13;;;16.89;100.00
829;BME280;396;52.558;13.188;2022-07-23T06:12:28;101221.00;;;16.90;100.00
829;BME280;396;52.558;13.188;2022-07-23T06:14:56;101212.66;;;16.87;100.00
829;BME280;396;52.558;13.188;2022-07-23T06:17:22;101222.50;;;16.79;100.00
829;BME280;396;52.558;13.188;2022-07-23T06:19:49;101225.53;;;16.86;100.00
829;BME280;396;52.558;13.188;2022-07-23T06:22:16;101214.56;;;16.86;100.00
829;BME280;396;52.558;13.188;2022-07-23T06:24:42;101212.78;;;16.90;100.00
829;BME280;396;52.558;13.188;2022-07-23T06:27:09;101218.09;;;16.96;100.00
829;BME280;396;52.558;13.188;2022-07-23T06:29:36;101217.91;;;17.01;100.00
829;BME280;396;52.558;13.188;2022-07-23T06:32:04;101210.31;;;17.06;100.00
829;BME280;396;52.558;13.188;2022-07-23T06:34:31;101214.00;;;17.10;100.00
829;BME280;396;52.558;13.188;2022-07-23T06:36:58;101208.88;;;17.09;100.00
829;BME280;396;52.558;13.188;2022-07-23T06:39:24;101216.41;;;17.12;100.00
829;BME280;396;52.558;13.188;2022-07-23T06:41:51;101227.53;;;17.07;100.00
829;BME280;396;52.558;13.188;2022-07-23T06:44:18;101227.72;;;17.02;100.00
829;BME280;396;52.558;13.188;2022-07-23T06:46:45;101208.41;;;16.98;100.00
829;BME280;396;52.558;13.188;2022-07-23T06:49:13;101212.44;;;17.01;100.00
829;BME280;396;52.558;13.188;2022-07-23T06:51:39;101201.34;;;16.97;100.00
829;BME280;396;52.558;13.188;2022-07-23T06:54:06;101202.53;;;16.87;100.00
829;BME280;396;52.558;13.188;2022-07-23T06:56:32;101205.25;;;16.87;100.00
829;BME280;396;52.558;13.188;2022-07-23T06:58:59;101194.13;;;16.93;100.00
829;BME280;396;52.558;13.188;2022-07-23T07:01:26;101195.06;;;16.97;100.00
829;BME280;396;52.558;13.188;2022-07-23T07:03:52;101194.34;;;17.08;100.00
829;BME280;396;52.558;13.188;2022-07-23T07:06:20;101193.38;;;17.13;100.00
829;BME280;396;52.558;13.188;2022-07-23T07:08:47;101207.91;;;17.05;100.00
829;BME280;396;52.558;13.188;2022-07-23T07:11:14;101214.69;;;16.99;100.00
829;BME280;396;52.558;13.188;2022-07-23T07:13:40;101230.78;;;17.09;100.00
829;BME280;396;52.558;13.188;2022-07-23T07:16:07;101239.75;;;17.18;100.00
829;BME280;396;52.558;13.188;2022-07-23T07:18:33;101246.47;;;17.21;100.00
829;BME280;396;52.558;13.188;2022-07-23T07:21:00;101245.81;;;17.24;100.00
829;BME280;396;52.558;13.188;2022-07-23T07:23:28;101237.13;;;17.22;100.00
829;BME280;396;52.558;13.188;2022-07-23T07:25:55;101241.25;;;17.36;100.00
829;BME280;396;52.558;13.188;2022-07-23T07:28:21;101240.53;;;17.48;100.00
829;BME280;396;52.558;13.188;2022-07-23T07:30:48;101247.44;;;17.54;100.00
829;BME280;396;52.558;13.188;2022-07-23T07:33:15;101250.56;;;17.65;100.00
829;BME280;396;52.558;13.188;2022-07-23T07:35:41;101247.81;;;17.74;100.00
829;BME280;396;52.558;13.188;2022-07-23T07:38:08;101238.59;;;17.78;100.00
829;BME280;396;52.558;13.188;2022-07-23T07:40:36;101238.53;;;17.87;100.00
829;BME280;396;52.558;13.188;2022-07-23T07:43:02;101239.00;;;17.89;100.00
829;BME280;396;52.558;13.188;2022-07-23T07:45:29;101234.13;;;17.95;100.00
829;BME280;396;52.558;13.188;2022-07-23T07:47:56;101238.94;;;17.98;100.00
829;BME280;396;52.558;13.188;2022-07-23T07:50:22;101229.88;;;17.97;100.00
829;BME280;396;52.558;13.188;2022-07-23T07:52:49;101217.25;;;18.05;100.00
829;BME280;396;52.558;13.188;2022-07-23T07:55:16;101215.25;;;18.14;100.00
829;BME280;396;52.558;13.188;2022-07-23T07:57:44;101215.03;;;18.19;100.00
829;BME280;396;52.558;13.188;2022-07-23T08:00:11;101216.88;;;18.27;100.00
829;BME280;396;52.558;13.188;2022-07-23T08:02:42;101223.25;;;18.19;99.68
829;BME280;396;52.558;13.188;2022-07-23T08:05:09;101224.34;;;18.06;97.44
829;BME280;396;52.558;13.188;2022-07-23T08:07:36;101217.25;;;18.05;98.76
829;BME280;396;52.558;13.188;2022-07-23T08:10:05;101226.06;;;18.10;100.00
829;BME280;396;52.558;13.188;2022-07-23T08:12:38;101221.13;;;18.04;99.43
829;BME280;396;52.558;13.188;2022-07-23T08:15:08;101225.09;;;18.15;99.37
829;BME280;396;52.558;13.188;2022-07-23T08:17:35;101223.72;;;18.21;99.98
829;BME280;396;52.558;13.188;2022-07-23T08:20:02;101220.31;;;18.24;99.00
829;BME280;396;52.558;13.188;2022-07-23T08:22:42;101218.69;;;18.23;97.10
829;BME280;396;52.558;13.188;2022-07-23T08:25:09;101224.91;;;18.32;97.87
829;BME280;396;52.558;13.188;2022-07-23T08:27:36;101226.44;;;18.42;99.14
829;BME280;396;52.558;13.188;2022-07-23T08:30:03;101224.59;;;18.34;94.63
829;BME280;396;52.558;13.188;2022-07-23T08:32:31;101230.66;;;18.39;94.57
829;BME280;396;52.558;13.188;2022-07-23T08:34:58;101242.19;;;18.45;94.06
829;BME280;396;52.558;13.188;2022-07-23T08:37:24;101224.72;;;18.50;94.23
829;BME280;396;52.558;13.188;2022-07-23T08:39:51;101221.06;;;18.46;92.88
829;BME280;396;52.558;13.188;2022-07-23T08:42:18;101212.38;;;18.44;93.50
829;BME280;396;52.558;13.188;2022-07-23T08:44:45;101210.25;;;18.61;94.51
829;BME280;396;52.558;13.188;2022-07-23T08:47:13;101212.19;;;18.61;92.49
829;BME280;396;52.558;13.188;2022-07-23T08:49:43;101208.47;;;18.78;91.85
829;BME280;396;52.558;13.188;2022-07-23T08:52:10;101205.16;;;18.97;92.94
829;BME280;396;52.558;13.188;2022-07-23T08:54:37;101205.16;;;19.21;92.88
829;BME280;396;52.558;13.188;2022-07-23T08:57:04;101200.81;;;19.45;93.59
829;BME280;396;52.558;13.188;2022-07-23T08:59:31;101209.28;;;19.39;87.98
829;BME280;396;52.558;13.188;2022-07-23T09:01:58;101213.63;;;19.28;84.59
829;BME280;396;52.558;13.188;2022-07-23T09:04:25;101217.06;;;19.25;85.88
829;BME280;396;52.558;13.188;2022-07-23T09:06:54;101214.91;;;19.19;85.57
829;BME280;396;52.558;13.188;2022-07-23T09:09:21;101217.28;;;19.20;88.17
829;BME280;396;52.558;13.188;2022-07-23T09:12:02;101234.69;;;19.24;92.30
829;BME280;396;52.558;13.188;2022-07-23T09:14:40;101234.44;;;19.29;93.05
829;BME280;396;52.558;13.188;2022-07-23T09:17:11;101243.38;;;19.38;90.03
829;BME280;396;52.558;13.188;2022-07-23T09:19:38;101242.22;;;19.52;87.97
829;BME280;396;52.558;13.188;2022-07-23T09:22:19;101235.81;;;19.72;86.47
829;BME280;396;52.558;13.188;2022-07-23T09:25:03;101232.44;;;19.91;83.81
829;BME280;396;52.558;13.188;2022-07-23T09:27:46;101241.44;;;20.04;83.06
829;BME280;396;52.558;13.188;2022-07-23T09:30:13;101245.19;;;19.83;84.44
829;BME280;396;52.558;13.188;2022-07-23T09:32:40;101248.81;;;19.87;83.19
829;BME280;396;52.558;13.188;2022-07-23T09:35:07;101256.59;;;19.98;82.84
829;BME280;396;52.558;13.188;2022-07-23T09:37:35;101257.50;;;20.02;84.31
829;BME280;396;52.558;13.188;2022-07-23T09:40:07;101258.94;;;20.24;83.08
829;BME280;396;52.558;13.188;2022-07-23T09:42:34;101263.66;;;20.39;76.53
829;BME280;396;52.558;13.188;2022-07-23T09:45:01;101259.16;;;20.47;78.11
829;BME280;396;52.558;13.188;2022-07-23T09:47:31;101260.22;;;20.70;79.35
829;BME280;396;52.558;13.188;2022-07-23T09:49:59;101256.06;;;20.76;76.89
829;BME280;396;52.558;13.188;2022-07-23T09:52:27;101258.28;;;20.86;77.02
829;BME280;396;52.558;13.188;2022-07-23T09:54:59;101248.41;;;21.01;74.63
829;BME280;396;52.558;13.188;2022-07-23T09:57:27;101250.44;;;20.88;75.69
829;BME280;396;52.558;13.188;2022-07-23T09:59:57;101258.88;;;20.80;76.05
829;BME280;396;52.558;13.188;2022-07-23T10:02:24;101262.34;;;20.92;73.88
829;BME280;396;52.558;13.188;2022-07-23T10:04:53;101261.03;;;21.02;73.92
829;BME280;396;52.558;13.188;2022-07-23T10:07:21;101261.13;;;21.06;73.78
829;BME280;396;52.558;13.188;2022-07-23T10:09:50;101256.13;;;21.11;72.01
829;BME280;396;52.558;13.188;2022-07-23T10:12:20;101266.53;;;21.02;74.50
829;BME280;396;52.558;13.188;2022-07-23T10:15:04;101264.50;;;20.99;69.96
829;BME280;396;52.558;13.188;2022-07-23T10:17:31;101262.38;;;21.08;74.40
829;BME280;396;52.558;13.188;2022-07-23T10:19:58;101260.94;;;21.30;76.76
829;BME280;396;52.558;13.188;2022-07-23T10:22:26;101258.91;;;21.43;72.54
829;BME280;396;52.558;13.188;2022-07-23T10:25:10;101257.69;;;21.60;71.69
829;BME280;396;52.558;13.188;2022-07-23T10:27:48;101263.09;;;21.72;70.84
829;BME280;396;52.558;13.188;2022-07-23T10:30:21;101266.44;;;21.46;67.72
829;BME280;396;52.558;13.188;2022-07-23T10:32:56;101267.84;;;21.56;71.05
829;BME280;396;52.558;13.188;2022-07-23T10:35:30;101267.31;;;21.66;66.11
829;BME280;396;52.558;13.188;2022-07-23T10:38:02;101270.06;;;21.66;67.26
829;BME280;396;52.558;13.188;2022-07-23T10:40:34;101275.13;;;21.64;67.26
829;BME280;396;52.558;13.188;2022-07-23T10:43:13;101260.34;;;21.72;67.67
829;BME280;396;52.558;13.188;2022-07-23T10:45:42;101267.91;;;21.75;68.62
829;BME280;396;52.558;13.188;2022-07-23T10:48:14;101261.97;;;21.92;70.62
829;BME280;396;52.558;13.188;2022-07-23T10:50:41;101263.75;;;22.20;66.83
829;BME280;396;52.558;13.188;2022-07-23T10:53:11;101259.53;;;22.46;67.30
829;BME280;396;52.558;13.188;2022-07-23T10:55:41;101274.00;;;22.62;65.36
829;BME280;396;52.558;13.188;2022-07-23T10:58:10;101271.81;;;22.90;64.81
829;BME280;396;52.558;13.188;2022-07-23T11:00:37;101267.44;;;22.89;61.93
829;BME280;396;52.558;13.188;2022-07-23T11:03:06;101269.34;;;23.08;64.10
829;BME280;396;52.558;13.188;2022-07-23T11:05:52;101266.84;;;23.00;65.05
829;BME280;396;52.558;13.188;2022-07-23T11:08:19;101263.97;;;23.19;65.77
829;BME280;396;52.558;13.188;2022-07-23T11:10:51;101267.97;;;23.22;64.79
829;BME280;396;52.558;13.188;2022-07-23T11:13:42;101261.59;;;23.17;62.76
829;BME280;396;52.558;13.188;2022-07-23T11:16:21;101262.91;;;23.01;62.52
829;BME280;396;52.558;13.188;2022-07-23T11:19:07;101264.59;;;23.09;58.09
829;BME280;396;52.558;13.188;2022-07-23T11:21:47;101262.22;;;22.84;59.77
829;BME280;396;52.558;13.188;2022-07-23T11:24:19;101267.84;;;23.14;62.04
829;BME280;396;52.558;13.188;2022-07-23T11:26:54;101269.63;;;23.53;61.73
829;BME280;396;52.558;13.188;2022-07-23T11:29:46;101264.22;;;23.60;58.81
829;BME280;396;52.558;13.188;2022-07-23T11:32:27;101260.88;;;23.47;58.26
829;BME280;396;52.558;13.188;2022-07-23T11:34:55;101266.34;;;23.44;58.63
829;BME280;396;52.558;13.188;2022-07-23T11:37:31;101265.91;;;23.41;60.26
829;BME280;396;52.558;13.188;2022-07-23T11:39:59;101255.25;;;23.97;56.98
829;BME280;396;52.558;13.188;2022-07-23T11:42:26;101252.63;;;24.41;54.66
829;BME280;396;52.558;13.188;2022-07-23T11:44:53;101257.06;;;24.90;56.20
829;BME280;396;52.558;13.188;2022-07-23T11:47:24;101261.31;;;25.21;54.89
829;BME280;396;52.558;13.188;2022-07-23T11:49:53;101272.63;;;25.05;54.34
829;BME280;396;52.558;13.188;2022-07-23T11:52:20;101267.09;;;24.61;54.36
829;BME280;396;52.558;13.188;2022-07-23T11:54:48;101263.75;;;24.45;55.70
829;BME280;396;52.558;13.188;2022-07-23T11:57:15;101253.53;;;24.52;54.77
829;BME280;396;52.558;13.188;2022-07-23T11:59:42;101260.81;;;24.67;54.94
829;BME280;396;52.558;13.188;2022-07-23T12:02:11;101254.13;;;25.13;52.84
829;BME280;396;52.558;13.188;2022-07-23T12:04:38;101253.91;;;25.39;53.50
829;BME280;396;52.558;13.188;2022-07-23T12:07:22;101253.94;;;25.43;51.99
829;BME280;396;52.558;13.188;2022-07-23T12:09:49;101247.91;;;25.30;52.94
829;BME280;396;52.558;13.188;2022-07-23T12:12:16;101247.53;;;25.32;54.18
829;BME280;396;52.558;13.188;2022-07-23T12:14:53;101254.56;;;25.15;51.69
829;BME280;396;52.558;13.188;2022-07-23T12:17:28;101260.34;;;25.03;53.25
829;BME280;396;52.558;13.188;2022-07-23T12:19:56;101249.13;;;24.85;54.25
829;BME280;396;52.558;13.188;2022-07-23T12:22:24;101255.09;;;24.90;53.26
829;BME280;396;52.558;13.188;2022-07-23T12:24:56;101257.56;;;25.54;52.90
829;BME280;396;52.558;13.188;2022-07-23T12:27:23;101256.75;;;26.34;51.43
829;BME280;396;52.558;13.188;2022-07-23T12:29:50;101257.75;;;27.09;48.45
829;BME280;396;52.558;13.188;2022-07-23T12:32:19;101265.22;;;27.52;48.86
829;BME280;396;52.558;13.188;2022-07-23T12:34:48;101266.78;;;27.74;47.26
829;BME280;396;52.558;13.188;2022-07-23T12:37:27;101260.88;;;27.40;46.28
829;BME280;396;52.558;13.188;2022-07-23T12:39:54;101252.94;;;27.17;46.96
829;BME280;396;52.558;13.188;2022-07-23T12:42:20;101248.94;;;26.68;48.04
829;BME280;396;52.558;13.188;2022-07-23T12:45:07;101254.22;;;25.86;49.21
829;BME280;396;52.558;13.188;2022-07-23T12:48:07;101247.19;;;25.40;51.77
829;BME280;396;52.558;13.188;2022-07-23T12:50:49;101247.63;;;25.50;50.58
829;BME280;396;52.558;13.188;2022-07-23T12:53:18;101247.59;;;25.42;51.11
829;BME280;396;52.558;13.188;2022-07-23T12:55:46;101244.84;;;25.50;51.94
829;BME280;396;52.558;13.188;2022-07-23T12:58:14;101239.69;;;26.17;49.95
829;BME280;396;52.558;13.188;2022-07-23T13:00:53;101252.91;;;26.96;48.88
829;BME280;396;52.558;13.188;2022-07-23T13:03:24;101246.56;;;26.66;48.25
829;BME280;396;52.558;13.188;2022-07-23T13:05:52;101244.97;;;26.76;47.65
829;BME280;396;52.558;13.188;2022-07-23T13:08:20;101243.81;;;27.20;46.49
829;BME280;396;52.558;13.188;2022-07-23T13:10:46;101248.44;;;27.84;47.08
829;BME280;396;52.558;13.188;2022-07-23T13:13:13;101241.47;;;28.35;46.80
829;BME280;396;52.558;13.188;2022-07-23T13:15:40;101237.66;;;28.70;42.67
829;BME280;396;52.558;13.188;2022-07-23T13:18:06;101239.88;;;28.30;42.89
829;BME280;396;52.558;13.188;2022-07-23T13:20:33;101240.94;;;27.81;43.85
829;BME280;396;52.558;13.188;2022-07-23T13:23:01;101238.56;;;27.61;45.18
829;BME280;396;52.558;13.188;2022-07-23T13:25:28;101249.75;;;27.22;46.29